sensor_id;sensor_type;location;lat;lon;timestamp;temperature;humidity
47482;DHT22;33219;47.410;9.730;2022-09-21T00:01:28;10.10;99.90
47482;DHT22;33219;47.410;9.730;2022-09-21T00:04:01;10.10;99.90
47482;DHT22;33219;47.410;9.730;2022-09-21T00:06:31;10.10;99.90
47482;DHT22;33219;47.410;9.730;2022-09-21T00:08:59;10.00;99.90
47482;DHT22;33219;47.410;9.730;2022-09-21T00:11:31;10.00;99.90
47482;DHT22;33219;47.410;9.730;2022-09-21T00:14:01;9.90;99.90
47482;DHT22;33219;47.410;9.730;2022-09-21T00:16:29;9.90;99.90
47482;DHT22;33219;47.410;9.730;2022-09-21T00:18:57;9.90;99.90
47482;DHT22;33219;47.410;9.730;2022-09-21T00:21:25;9.80;99.90
47482;DHT22;33219;47.410;9.730;2022-09-21T00:23:53;9.80;99.90
47482;DHT22;33219;47.410;9.730;2022-09-21T00:26:23;9.80;99.90
47482;DHT22;33219;47.410;9.730;2022-09-21T00:28:52;9.80;99.90
47482;DHT22;33219;47.410;9.730;2022-09-21T00:31:21;9.80;99.90
47482;DHT22;33219;47.410;9.730;2022-09-21T00:33:50;9.80;99.90
47482;DHT22;33219;47.410;9.730;2022-09-21T00:36:20;9.80;99.90
47482;DHT22;33219;47.410;9.730;2022-09-21T00:38:52;9.80;99.90
47482;DHT22;33219;47.410;9.730;2022-09-21T00:41:20;9.80;99.90
47482;DHT22;33219;47.410;9.730;2022-09-21T00:44:22;9.80;99.90
47482;DHT22;33219;47.410;9.730;2022-09-21T00:46:34;9.70;99.90
47482;DHT22;33219;47.410;9.730;2022-09-21T00:49:02;9.70;99.90
47482;DHT22;33219;47.410;9.730;2022-09-21T00:51:30;9.70;99.90
47482;DHT22;33219;47.410;9.730;2022-09-21T00:54:00;9.60;99.90
47482;DHT22;33219;47.410;9.730;2022-09-21T00:56:29;9.60;99.90
47482;DHT22;33219;47.410;9.730;2022-09-21T00:58:57;9.60;99.90
47482;DHT22;33219;47.410;9.730;2022-09-21T01:01:25;9.50;99.90
47482;DHT22;33219;47.410;9.730;2022-09-21T01:03:54;9.50;99.90
47482;DHT22;33219;47.410;9.730;2022-09-21T01:06:23;9.40;99.90
47482;DHT22;33219;47.410;9.730;2022-09-21T01:08:54;9.40;99.90
47482;DHT22;33219;47.410;9.730;2022-09-21T01:11:50;9.40;99.90
47482;DHT22;33219;47.410;9.730;2022-09-21T01:17:11;9.30;99.90
47482;DHT22;33219;47.410;9.730;2022-09-21T01:26:02;9.20;99.90
47482;DHT22;33219;47.410;9.730;2022-09-21T01:31:22;9.10;99.90
47482;DHT22;33219;47.410;9.730;2022-09-21T01:33:52;9.00;99.90
47482;DHT22;33219;47.410;9.730;2022-09-21T01:36:23;8.90;99.90
47482;DHT22;33219;47.410;9.730;2022-09-21T01:38:55;8.80;99.90
47482;DHT22;33219;47.410;9.730;2022-09-21T01:41:24;8.80;99.90
47482;DHT22;33219;47.410;9.730;2022-09-21T01:43:59;8.80;99.90
47482;DHT22;33219;47.410;9.730;2022-09-21T01:46:25;8.80;99.90
47482;DHT22;33219;47.410;9.730;2022-09-21T01:48:55;8.70;99.90
47482;DHT22;33219;47.410;9.730;2022-09-21T01:51:25;8.60;99.90
47482;DHT22;33219;47.410;9.730;2022-09-21T01:53:57;8.60;99.90
47482;DHT22;33219;47.410;9.730;2022-09-21T01:56:34;8.50;99.90
47482;DHT22;33219;47.410;9.730;2022-09-21T01:59:06;8.40;99.90
47482;DHT22;33219;47.410;9.730;2022-09-21T02:01:34;8.40;99.90
47482;DHT22;33219;47.410;9.730;2022-09-21T02:04:05;8.40;99.90
47482;DHT22;33219;47.410;9.730;2022-09-21T02:06:33;8.30;99.90
47482;DHT22;33219;47.410;9.730;2022-09-21T02:09:00;8.30;99.90
47482;DHT22;33219;47.410;9.730;2022-09-21T02:11:28;8.30;99.90
47482;DHT22;33219;47.410;9.730;2022-09-21T02:13:55;8.20;99.90
47482;DHT22;33219;47.410;9.730;2022-09-21T02:24:50;8.10;99.90
47482;DHT22;33219;47.410;9.730;2022-09-21T02:27:37;8.10;99.90
47482;DHT22;33219;47.410;9.730;2022-09-21T02:30:21;8.00;99.90
47482;DHT22;33219;47.410;9.730;2022-09-21T02:35:38;8.00;99.90
47482;DHT22;33219;47.410;9.730;2022-09-21T02:38:42;7.90;99.90
47482;DHT22;33219;47.410;9.730;2022-09-21T02:41:16;7.90;99.90
47482;DHT22;33219;47.410;9.730;2022-09-21T02:43:48;7.90;99.90
47482;DHT22;33219;47.410;9.730;2022-09-21T02:46:25;7.80;99.90
47482;DHT22;33219;47.410;9.730;2022-09-21T02:48:52;7.70;99.90
47482;DHT22;33219;47.410;9.730;2022-09-21T02:51:30;7.70;99.90
47482;DHT22;33219;47.410;9.730;2022-09-21T02:54:02;7.70;99.90
47482;DHT22;33219;47.410;9.730;2022-09-21T02:56:30;7.60;99.90
47482;DHT22;33219;47.410;9.730;2022-09-21T02:59:00;7.60;99.90
47482;DHT22;33219;47.410;9.730;2022-09-21T03:01:30;7.60;99.90
47482;DHT22;33219;47.410;9.730;2022-09-21T03:03:58;7.50;99.90
47482;DHT22;33219;47.410;9.730;2022-09-21T03:06:26;7.50;99.90
47482;DHT22;33219;47.410;9.730;2022-09-21T03:08:54;7.50;99.90
47482;DHT22;33219;47.410;9.730;2022-09-21T03:11:23;7.40;99.90
47482;DHT22;33219;47.410;9.730;2022-09-21T03:13:51;7.50;99.90
47482;DHT22;33219;47.410;9.730;2022-09-21T03:16:18;7.50;99.90
47482;DHT22;33219;47.410;9.730;2022-09-21T03:18:47;7.50;99.90
47482;DHT22;33219;47.410;9.730;2022-09-21T03:21:15;7.50;99.90
47482;DHT22;33219;47.410;9.730;2022-09-21T03:23:43;7.50;99.90
47482;DHT22;33219;47.410;9.730;2022-09-21T03:26:10;7.50;99.90
47482;DHT22;33219;47.410;9.730;2022-09-21T03:28:38;7.60;99.90
47482;DHT22;33219;47.410;9.730;2022-09-21T03:31:05;7.60;99.90
47482;DHT22;33219;47.410;9.730;2022-09-21T03:33:33;7.50;99.90
47482;DHT22;33219;47.410;9.730;2022-09-21T03:36:01;7.50;99.90
47482;DHT22;33219;47.410;9.730;2022-09-21T03:38:28;7.50;99.90
47482;DHT22;33219;47.410;9.730;2022-09-21T03:40:56;7.40;99.90
47482;DHT22;33219;47.410;9.730;2022-09-21T03:43:24;7.40;99.90
47482;DHT22;33219;47.410;9.730;2022-09-21T03:45:51;7.40;99.90
47482;DHT22;33219;47.410;9.730;2022-09-21T03:48:19;7.40;99.90
47482;DHT22;33219;47.410;9.730;2022-09-21T03:50:47;7.40;99.90
47482;DHT22;33219;47.410;9.730;2022-09-21T03:53:15;7.30;99.90
47482;DHT22;33219;47.410;9.730;2022-09-21T03:55:42;7.30;99.90
47482;DHT22;33219;47.410;9.730;2022-09-21T03:58:10;7.30;99.90
47482;DHT22;33219;47.410;9.730;2022-09-21T04:00:37;7.30;99.90
47482;DHT22;33219;47.410;9.730;2022-09-21T04:03:05;7.30;99.90
47482;DHT22;33219;47.410;9.730;2022-09-21T04:05:33;7.30;99.90
47482;DHT22;33219;47.410;9.730;2022-09-21T04:08:00;7.20;99.90
47482;DHT22;33219;47.410;9.730;2022-09-21T04:10:28;7.20;99.90
47482;DHT22;33219;47.410;9.730;2022-09-21T04:13:03;7.20;99.90
47482;DHT22;33219;47.410;9.730;2022-09-21T04:15:27;7.10;99.90
47482;DHT22;33219;47.410;9.730;2022-09-21T04:17:55;7.20;99.90
47482;DHT22;33219;47.410;9.730;2022-09-21T04:20:24;7.10;99.90
47482;DHT22;33219;47.410;9.730;2022-09-21T04:22:51;7.10;99.90
47482;DHT22;33219;47.410;9.730;2022-09-21T04:25:19;7.10;99.90
47482;DHT22;33219;47.410;9.730;2022-09-21T04:27:47;7.00;99.90
47482;DHT22;33219;47.410;9.730;2022-09-21T04:30:15;7.00;99.90
47482;DHT22;33219;47.410;9.730;2022-09-21T04:32:43;7.00;99.90
47482;DHT22;33219;47.410;9.730;2022-09-21T04:35:11;7.00;99.90
47482;DHT22;33219;47.410;9.730;2022-09-21T04:37:38;7.00;99.90
47482;DHT22;33219;47.410;9.730;2022-09-21T04:40:07;7.00;99.90
47482;DHT22;33219;47.410;9.730;2022-09-21T04:42:34;6.90;99.90
47482;DHT22;33219;47.410;9.730;2022-09-21T04:45:02;6.90;99.90
47482;DHT22;33219;47.410;9.730;2022-09-21T04:47:30;7.00;99.90
47482;DHT22;33219;47.410;9.730;2022-09-21T04:49:58;6.90;99.90
47482;DHT22;33219;47.410;9.730;2022-09-21T04:52:25;6.90;99.90
47482;DHT22;33219;47.410;9.730;2022-09-21T04:54:53;6.90;99.90
47482;DHT22;33219;47.410;9.730;2022-09-21T04:57:21;6.90;99.90
47482;DHT22;33219;47.410;9.730;2022-09-21T04:59:49;6.80;99.90
47482;DHT22;33219;47.410;9.730;2022-09-21T05:02:16;6.80;99.90
47482;DHT22;33219;47.410;9.730;2022-09-21T05:04:44;6.80;99.90
47482;DHT22;33219;47.410;9.730;2022-09-21T05:07:12;6.80;99.90
47482;DHT22;33219;47.410;9.730;2022-09-21T05:09:39;6.80;99.90
47482;DHT22;33219;47.410;9.730;2022-09-21T05:12:25;6.70;99.90
47482;DHT22;33219;47.410;9.730;2022-09-21T05:14:52;6.70;99.90
47482;DHT22;33219;47.410;9.730;2022-09-21T05:17:21;6.70;99.90
47482;DHT22;33219;47.410;9.730;2022-09-21T05:19:49;6.70;99.90
47482;DHT22;33219;47.410;9.730;2022-09-21T05:22:18;6.70;99.90
47482;DHT22;33219;47.410;9.730;2022-09-21T05:24:45;6.70;99.90
47482;DHT22;33219;47.410;9.730;2022-09-21T05:27:13;6.70;99.90
47482;DHT22;33219;47.410;9.730;2022-09-21T05:29:41;6.60;99.90
47482;DHT22;33219;47.410;9.730;2022-09-21T05:32:32;6.60;99.90
47482;DHT22;33219;47.410;9.730;2022-09-21T05:37:46;6.60;99.90
47482;DHT22;33219;47.410;9.730;2022-09-21T05:40:11;6.70;99.90
47482;DHT22;33219;47.410;9.730;2022-09-21T05:42:40;6.70;99.90
47482;DHT22;33219;47.410;9.730;2022-09-21T05:45:15;6.70;99.90
47482;DHT22;33219;47.410;9.730;2022-09-21T05:50:47;6.80;99.90
47482;DHT22;33219;47.410;9.730;2022-09-21T05:55:57;6.90;99.90
47482;DHT22;33219;47.410;9.730;2022-09-21T05:58:48;6.90;99.90
47482;DHT22;33219;47.410;9.730;2022-09-21T06:01:45;6.90;99.90
47482;DHT22;33219;47.410;9.730;2022-09-21T06:04:10;6.90;99.90
47482;DHT22;33219;47.410;9.730;2022-09-21T06:06:38;6.90;99.90
47482;DHT22;33219;47.410;9.730;2022-09-21T06:09:06;7.00;99.90
47482;DHT22;33219;47.410;9.730;2022-09-21T06:11:33;7.10;99.90
47482;DHT22;33219;47.410;9.730;2022-09-21T06:14:01;7.20;99.90
47482;DHT22;33219;47.410;9.730;2022-09-21T06:16:42;7.30;99.90
47482;DHT22;33219;47.410;9.730;2022-09-21T06:19:13;7.40;99.90
47482;DHT22;33219;47.410;9.730;2022-09-21T06:21:40;7.50;99.90
47482;DHT22;33219;47.410;9.730;2022-09-21T06:24:08;7.60;99.90
47482;DHT22;33219;47.410;9.730;2022-09-21T06:26:36;7.80;99.90
47482;DHT22;33219;47.410;9.730;2022-09-21T06:29:04;7.90;99.90
47482;DHT22;33219;47.410;9.730;2022-09-21T06:31:32;8.20;99.90
47482;DHT22;33219;47.410;9.730;2022-09-21T06:34:00;8.30;99.90
47482;DHT22;33219;47.410;9.730;2022-09-21T06:36:27;8.50;99.90
47482;DHT22;33219;47.410;9.730;2022-09-21T06:38:55;8.60;99.90
47482;DHT22;33219;47.410;9.730;2022-09-21T06:41:23;9.00;99.90
47482;DHT22;33219;47.410;9.730;2022-09-21T06:43:52;10.00;99.90
47482;DHT22;33219;47.410;9.730;2022-09-21T06:46:21;11.20;99.90
47482;DHT22;33219;47.410;9.730;2022-09-21T06:48:49;12.00;99.50
47482;DHT22;33219;47.410;9.730;2022-09-21T06:51:17;13.40;97.90
47482;DHT22;33219;47.410;9.730;2022-09-21T06:53:46;14.30;96.40
47482;DHT22;33219;47.410;9.730;2022-09-21T06:56:14;15.10;94.50
47482;DHT22;33219;47.410;9.730;2022-09-21T06:58:42;15.50;94.10
47482;DHT22;33219;47.410;9.730;2022-09-21T07:01:11;15.10;94.10
47482;DHT22;33219;47.410;9.730;2022-09-21T07:03:40;14.60;95.20
47482;DHT22;33219;47.410;9.730;2022-09-21T07:06:09;15.70;92.70
47482;DHT22;33219;47.410;9.730;2022-09-21T07:08:37;16.10;92.20
47482;DHT22;33219;47.410;9.730;2022-09-21T07:11:05;16.40;91.70
47482;DHT22;33219;47.410;9.730;2022-09-21T07:13:33;16.80;90.80
47482;DHT22;33219;47.410;9.730;2022-09-21T07:16:04;17.10;90.80
47482;DHT22;33219;47.410;9.730;2022-09-21T07:18:33;16.30;91.80
47482;DHT22;33219;47.410;9.730;2022-09-21T07:21:04;16.00;91.70
47482;DHT22;33219;47.410;9.730;2022-09-21T07:23:32;16.10;92.20
47482;DHT22;33219;47.410;9.730;2022-09-21T07:26:11;17.00;89.30
47482;DHT22;33219;47.410;9.730;2022-09-21T07:28:35;17.10;90.00
47482;DHT22;33219;47.410;9.730;2022-09-21T07:31:14;17.70;89.10
47482;DHT22;33219;47.410;9.730;2022-09-21T07:33:40;18.00;85.50
47482;DHT22;33219;47.410;9.730;2022-09-21T07:36:08;18.30;84.40
47482;DHT22;33219;47.410;9.730;2022-09-21T07:38:41;18.40;84.80
47482;DHT22;33219;47.410;9.730;2022-09-21T07:41:11;18.10;85.50
47482;DHT22;33219;47.410;9.730;2022-09-21T07:43:39;18.00;85.30
47482;DHT22;33219;47.410;9.730;2022-09-21T07:46:13;18.80;83.10
47482;DHT22;33219;47.410;9.730;2022-09-21T07:48:37;18.10;82.50
47482;DHT22;33219;47.410;9.730;2022-09-21T07:51:07;16.80;86.40
47482;DHT22;33219;47.410;9.730;2022-09-21T07:53:36;17.00;85.50
47482;DHT22;33219;47.410;9.730;2022-09-21T07:56:09;17.90;83.10
47482;DHT22;33219;47.410;9.730;2022-09-21T07:58:38;17.80;83.40
47482;DHT22;33219;47.410;9.730;2022-09-21T08:01:10;17.80;83.70
47482;DHT22;33219;47.410;9.730;2022-09-21T08:03:38;18.00;83.60
47482;DHT22;33219;47.410;9.730;2022-09-21T08:08:35;18.20;84.60
47482;DHT22;33219;47.410;9.730;2022-09-21T08:11:06;18.20;83.10
47482;DHT22;33219;47.410;9.730;2022-09-21T08:13:34;18.50;83.70
47482;DHT22;33219;47.410;9.730;2022-09-21T08:16:02;18.60;81.60
47482;DHT22;33219;47.410;9.730;2022-09-21T08:18:30;18.20;83.80
47482;DHT22;33219;47.410;9.730;2022-09-21T08:20:59;18.30;84.40
47482;DHT22;33219;47.410;9.730;2022-09-21T08:23:27;18.40;84.50
47482;DHT22;33219;47.410;9.730;2022-09-21T08:26:03;18.50;84.40
47482;DHT22;33219;47.410;9.730;2022-09-21T08:28:32;18.90;82.30
47482;DHT22;33219;47.410;9.730;2022-09-21T08:31:04;18.70;83.00
47482;DHT22;33219;47.410;9.730;2022-09-21T08:33:33;18.40;84.40
47482;DHT22;33219;47.410;9.730;2022-09-21T08:36:01;18.70;84.20
47482;DHT22;33219;47.410;9.730;2022-09-21T08:38:34;18.30;84.00
47482;DHT22;33219;47.410;9.730;2022-09-21T08:42:07;17.90;84.80
47482;DHT22;33219;47.410;9.730;2022-09-21T08:44:32;17.70;85.50
47482;DHT22;33219;47.410;9.730;2022-09-21T08:46:23;18.00;85.50
47482;DHT22;33219;47.410;9.730;2022-09-21T08:48:55;18.60;82.70
47482;DHT22;33219;47.410;9.730;2022-09-21T08:51:25;18.30;83.60
47482;DHT22;33219;47.410;9.730;2022-09-21T08:53:56;18.10;83.20
47482;DHT22;33219;47.410;9.730;2022-09-21T08:56:25;18.00;84.90
47482;DHT22;33219;47.410;9.730;2022-09-21T08:58:53;17.90;85.40
47482;DHT22;33219;47.410;9.730;2022-09-21T09:01:43;18.40;83.20
47482;DHT22;33219;47.410;9.730;2022-09-21T09:12:23;17.60;88.40
47482;DHT22;33219;47.410;9.730;2022-09-21T09:20:12;17.50;83.90
47482;DHT22;33219;47.410;9.730;2022-09-21T09:22:43;17.20;85.20
47482;DHT22;33219;47.410;9.730;2022-09-21T09:25:21;16.70;89.00
47482;DHT22;33219;47.410;9.730;2022-09-21T09:27:56;16.70;88.00
47482;DHT22;33219;47.410;9.730;2022-09-21T09:30:29;16.30;89.50
47482;DHT22;33219;47.410;9.730;2022-09-21T09:33:02;16.50;87.30
47482;DHT22;33219;47.410;9.730;2022-09-21T09:35:43;16.60;87.10
47482;DHT22;33219;47.410;9.730;2022-09-21T09:38:09;16.70;90.20
47482;DHT22;33219;47.410;9.730;2022-09-21T09:40:55;16.50;90.00
47482;DHT22;33219;47.410;9.730;2022-09-21T09:46:02;16.90;85.00
47482;DHT22;33219;47.410;9.730;2022-09-21T09:48:46;16.90;84.30
47482;DHT22;33219;47.410;9.730;2022-09-21T09:51:14;16.80;85.10
47482;DHT22;33219;47.410;9.730;2022-09-21T09:53:38;16.80;86.30
47482;DHT22;33219;47.410;9.730;2022-09-21T09:56:08;16.70;85.70
47482;DHT22;33219;47.410;9.730;2022-09-21T09:58:56;16.50;85.90
47482;DHT22;33219;47.410;9.730;2022-09-21T10:01:42;16.60;88.00
47482;DHT22;33219;47.410;9.730;2022-09-21T10:04:14;16.50;87.30
47482;DHT22;33219;47.410;9.730;2022-09-21T10:06:42;16.70;87.20
47482;DHT22;33219;47.410;9.730;2022-09-21T10:09:29;16.90;87.50
47482;DHT22;33219;47.410;9.730;2022-09-21T10:12:00;17.00;88.30
47482;DHT22;33219;47.410;9.730;2022-09-21T10:14:34;17.00;88.40
47482;DHT22;33219;47.410;9.730;2022-09-21T10:17:02;17.40;87.90
47482;DHT22;33219;47.410;9.730;2022-09-21T10:19:29;17.70;88.50
47482;DHT22;33219;47.410;9.730;2022-09-21T10:21:59;17.60;88.60
47482;DHT22;33219;47.410;9.730;2022-09-21T10:24:31;17.30;86.40
47482;DHT22;33219;47.410;9.730;2022-09-21T10:27:05;17.30;84.70
47482;DHT22;33219;47.410;9.730;2022-09-21T10:29:48;17.40;86.20
47482;DHT22;33219;47.410;9.730;2022-09-21T10:32:19;17.40;86.20
47482;DHT22;33219;47.410;9.730;2022-09-21T10:37:39;17.20;86.70
47482;DHT22;33219;47.410;9.730;2022-09-21T10:42:51;17.20;85.90
47482;DHT22;33219;47.410;9.730;2022-09-21T10:47:57;17.10;87.40
47482;DHT22;33219;47.410;9.730;2022-09-21T10:50:29;17.40;87.30
47482;DHT22;33219;47.410;9.730;2022-09-21T10:53:47;17.50;88.00
47482;DHT22;33219;47.410;9.730;2022-09-21T10:55:31;17.70;86.00
47482;DHT22;33219;47.410;9.730;2022-09-21T10:57:59;18.00;85.90
47482;DHT22;33219;47.410;9.730;2022-09-21T11:00:29;17.70;85.40
47482;DHT22;33219;47.410;9.730;2022-09-21T11:02:59;17.60;87.70
47482;DHT22;33219;47.410;9.730;2022-09-21T11:05:31;17.60;85.50
47482;DHT22;33219;47.410;9.730;2022-09-21T11:08:08;17.60;87.00
47482;DHT22;33219;47.410;9.730;2022-09-21T11:10:43;17.70;90.00
47482;DHT22;33219;47.410;9.730;2022-09-21T11:13:30;17.40;86.10
47482;DHT22;33219;47.410;9.730;2022-09-21T11:16:15;17.50;85.40
47482;DHT22;33219;47.410;9.730;2022-09-21T11:21:37;17.60;85.50
47482;DHT22;33219;47.410;9.730;2022-09-21T11:26:43;17.70;88.70
47482;DHT22;33219;47.410;9.730;2022-09-21T11:32:18;18.00;84.30
47482;DHT22;33219;47.410;9.730;2022-09-21T11:35:05;18.20;85.00
47482;DHT22;33219;47.410;9.730;2022-09-21T11:40:18;18.20;84.40
47482;DHT22;33219;47.410;9.730;2022-09-21T11:43:01;18.40;83.70
47482;DHT22;33219;47.410;9.730;2022-09-21T11:48:33;18.40;82.60
47482;DHT22;33219;47.410;9.730;2022-09-21T11:51:24;18.30;83.50
47482;DHT22;33219;47.410;9.730;2022-09-21T12:02:13;18.50;81.70
47482;DHT22;33219;47.410;9.730;2022-09-21T12:04:42;18.50;81.70
47482;DHT22;33219;47.410;9.730;2022-09-21T12:13:06;18.50;82.60
47482;DHT22;33219;47.410;9.730;2022-09-21T12:15:18;18.50;80.00
47482;DHT22;33219;47.410;9.730;2022-09-21T12:20:33;18.50;80.60
47482;DHT22;33219;47.410;9.730;2022-09-21T12:23:03;18.50;80.20
47482;DHT22;33219;47.410;9.730;2022-09-21T12:25:34;18.50;81.00
47482;DHT22;33219;47.410;9.730;2022-09-21T12:28:06;18.50;80.80
47482;DHT22;33219;47.410;9.730;2022-09-21T12:30:33;18.50;79.50
47482;DHT22;33219;47.410;9.730;2022-09-21T12:33:22;18.50;83.10
47482;DHT22;33219;47.410;9.730;2022-09-21T12:36:07;18.40;79.30
47482;DHT22;33219;47.410;9.730;2022-09-21T12:38:41;18.40;80.60
47482;DHT22;33219;47.410;9.730;2022-09-21T12:41:17;18.40;77.00
47482;DHT22;33219;47.410;9.730;2022-09-21T12:43:50;18.40;76.50
47482;DHT22;33219;47.410;9.730;2022-09-21T12:48:54;18.40;76.70
47482;DHT22;33219;47.410;9.730;2022-09-21T12:51:29;18.40;76.40
47482;DHT22;33219;47.410;9.730;2022-09-21T12:54:46;18.40;77.80
47482;DHT22;33219;47.410;9.730;2022-09-21T12:56:50;18.40;77.30
47482;DHT22;33219;47.410;9.730;2022-09-21T12:59:33;18.30;74.70
47482;DHT22;33219;47.410;9.730;2022-09-21T13:02:22;18.40;74.70
47482;DHT22;33219;47.410;9.730;2022-09-21T13:10:13;18.30;77.40
47482;DHT22;33219;47.410;9.730;2022-09-21T13:12:39;18.20;77.10
47482;DHT22;33219;47.410;9.730;2022-09-21T13:15:22;18.10;77.10
47482;DHT22;33219;47.410;9.730;2022-09-21T13:17:59;18.00;76.50
47482;DHT22;33219;47.410;9.730;2022-09-21T13:20:21;18.00;78.20
47482;DHT22;33219;47.410;9.730;2022-09-21T13:22:50;17.90;77.30
47482;DHT22;33219;47.410;9.730;2022-09-21T13:25:22;18.00;78.90
47482;DHT22;33219;47.410;9.730;2022-09-21T13:30:49;18.00;78.00
47482;DHT22;33219;47.410;9.730;2022-09-21T13:41:24;17.90;79.60
47482;DHT22;33219;47.410;9.730;2022-09-21T13:54:51;17.80;79.90
47482;DHT22;33219;47.410;9.730;2022-09-21T13:57:34;17.70;77.80
47482;DHT22;33219;47.410;9.730;2022-09-21T14:02:52;17.70;79.40
47482;DHT22;33219;47.410;9.730;2022-09-21T14:05:30;17.70;80.10
47482;DHT22;33219;47.410;9.730;2022-09-21T14:10:58;17.70;79.80
47482;DHT22;33219;47.410;9.730;2022-09-21T14:13:38;17.60;79.30
47482;DHT22;33219;47.410;9.730;2022-09-21T14:19:57;17.60;79.10
47482;DHT22;33219;47.410;9.730;2022-09-21T14:21:32;17.60;79.50
47482;DHT22;33219;47.410;9.730;2022-09-21T14:24:15;17.60;78.50
47482;DHT22;33219;47.410;9.730;2022-09-21T14:29:23;17.50;79.80
47482;DHT22;33219;47.410;9.730;2022-09-21T14:31:53;17.40;78.90
47482;DHT22;33219;47.410;9.730;2022-09-21T14:34:24;17.40;79.40
47482;DHT22;33219;47.410;9.730;2022-09-21T14:36:55;17.30;79.60
47482;DHT22;33219;47.410;9.730;2022-09-21T14:39:32;17.30;78.80
47482;DHT22;33219;47.410;9.730;2022-09-21T14:42:03;17.30;79.00
47482;DHT22;33219;47.410;9.730;2022-09-21T14:44:32;17.30;78.80
47482;DHT22;33219;47.410;9.730;2022-09-21T14:58:59;17.00;80.00
47482;DHT22;33219;47.410;9.730;2022-09-21T15:01:36;17.00;79.50
47482;DHT22;33219;47.410;9.730;2022-09-21T15:06:48;16.90;79.70
47482;DHT22;33219;47.410;9.730;2022-09-21T15:09:44;16.90;79.60
47482;DHT22;33219;47.410;9.730;2022-09-21T15:12:50;16.80;80.00
47482;DHT22;33219;47.410;9.730;2022-09-21T15:15:22;16.80;80.20
47482;DHT22;33219;47.410;9.730;2022-09-21T15:17:57;16.80;81.10
47482;DHT22;33219;47.410;9.730;2022-09-21T15:20:28;16.80;80.10
47482;DHT22;33219;47.410;9.730;2022-09-21T15:22:57;16.70;79.80
47482;DHT22;33219;47.410;9.730;2022-09-21T15:25:30;16.70;80.10
47482;DHT22;33219;47.410;9.730;2022-09-21T15:27:58;16.70;79.60
47482;DHT22;33219;47.410;9.730;2022-09-21T15:30:27;16.70;80.60
47482;DHT22;33219;47.410;9.730;2022-09-21T15:32:59;16.60;80.70
47482;DHT22;33219;47.410;9.730;2022-09-21T15:35:30;16.50;80.50
47482;DHT22;33219;47.410;9.730;2022-09-21T15:37:58;16.50;80.40
47482;DHT22;33219;47.410;9.730;2022-09-21T15:43:02;16.50;80.50
47482;DHT22;33219;47.410;9.730;2022-09-21T15:48:10;16.40;80.80
47482;DHT22;33219;47.410;9.730;2022-09-21T15:50:39;16.40;81.40
47482;DHT22;33219;47.410;9.730;2022-09-21T15:53:20;16.30;81.00
47482;DHT22;33219;47.410;9.730;2022-09-21T15:55:48;16.30;81.30
47482;DHT22;33219;47.410;9.730;2022-09-21T15:58:35;16.30;82.50
47482;DHT22;33219;47.410;9.730;2022-09-21T16:01:10;16.20;82.30
47482;DHT22;33219;47.410;9.730;2022-09-21T16:03:40;16.20;82.10
47482;DHT22;33219;47.410;9.730;2022-09-21T16:06:26;16.10;82.50
47482;DHT22;33219;47.410;9.730;2022-09-21T16:08:54;16.10;82.30
47482;DHT22;33219;47.410;9.730;2022-09-21T16:14:13;16.00;83.20
47482;DHT22;33219;47.410;9.730;2022-09-21T16:17:04;16.00;83.70
47482;DHT22;33219;47.410;9.730;2022-09-21T16:19:40;15.90;83.90
47482;DHT22;33219;47.410;9.730;2022-09-21T16:22:13;15.90;83.60
47482;DHT22;33219;47.410;9.730;2022-09-21T16:24:50;15.80;84.10
47482;DHT22;33219;47.410;9.730;2022-09-21T16:27:21;15.80;83.70
47482;DHT22;33219;47.410;9.730;2022-09-21T16:29:50;15.80;84.50
47482;DHT22;33219;47.410;9.730;2022-09-21T16:32:26;15.70;84.80
47482;DHT22;33219;47.410;9.730;2022-09-21T16:34:50;15.60;85.10
47482;DHT22;33219;47.410;9.730;2022-09-21T16:37:24;15.60;85.00
47482;DHT22;33219;47.410;9.730;2022-09-21T16:39:55;15.50;85.60
47482;DHT22;33219;47.410;9.730;2022-09-21T16:42:24;15.50;85.60
47482;DHT22;33219;47.410;9.730;2022-09-21T16:44:54;15.40;85.40
47482;DHT22;33219;47.410;9.730;2022-09-21T16:47:23;15.40;85.20
47482;DHT22;33219;47.410;9.730;2022-09-21T16:49:52;15.30;85.60
47482;DHT22;33219;47.410;9.730;2022-09-21T16:52:22;15.30;85.90
47482;DHT22;33219;47.410;9.730;2022-09-21T16:54:50;15.20;86.30
47482;DHT22;33219;47.410;9.730;2022-09-21T16:57:18;15.10;86.70
47482;DHT22;33219;47.410;9.730;2022-09-21T16:59:45;15.00;86.60
47482;DHT22;33219;47.410;9.730;2022-09-21T17:02:13;14.90;86.90
47482;DHT22;33219;47.410;9.730;2022-09-21T17:04:41;14.80;87.00
47482;DHT22;33219;47.410;9.730;2022-09-21T17:07:13;14.70;88.00
47482;DHT22;33219;47.410;9.730;2022-09-21T17:09:42;14.60;88.40
47482;DHT22;33219;47.410;9.730;2022-09-21T17:12:16;14.50;88.30
47482;DHT22;33219;47.410;9.730;2022-09-21T17:14:44;14.50;89.60
47482;DHT22;33219;47.410;9.730;2022-09-21T17:19:43;14.30;90.00
47482;DHT22;33219;47.410;9.730;2022-09-21T17:22:12;14.20;90.40
47482;DHT22;33219;47.410;9.730;2022-09-21T17:24:47;14.10;90.40
47482;DHT22;33219;47.410;9.730;2022-09-21T17:27:16;14.10;90.30
47482;DHT22;33219;47.410;9.730;2022-09-21T17:29:44;14.00;91.00
47482;DHT22;33219;47.410;9.730;2022-09-21T17:32:18;13.80;91.30
47482;DHT22;33219;47.410;9.730;2022-09-21T17:34:49;13.60;91.90
47482;DHT22;33219;47.410;9.730;2022-09-21T17:37:15;13.50;91.40
47482;DHT22;33219;47.410;9.730;2022-09-21T17:39:43;13.40;92.40
47482;DHT22;33219;47.410;9.730;2022-09-21T17:42:19;13.30;92.60
47482;DHT22;33219;47.410;9.730;2022-09-21T17:45:04;13.10;92.80
47482;DHT22;33219;47.410;9.730;2022-09-21T17:47:34;13.00;94.10
47482;DHT22;33219;47.410;9.730;2022-09-21T17:50:15;13.00;92.70
47482;DHT22;33219;47.410;9.730;2022-09-21T17:52:43;12.80;92.70
47482;DHT22;33219;47.410;9.730;2022-09-21T17:55:29;12.80;94.80
47482;DHT22;33219;47.410;9.730;2022-09-21T17:58:17;12.70;95.30
47482;DHT22;33219;47.410;9.730;2022-09-21T18:01:05;12.70;95.30
47482;DHT22;33219;47.410;9.730;2022-09-21T18:03:32;12.60;95.90
47482;DHT22;33219;47.410;9.730;2022-09-21T18:06:02;12.50;96.60
47482;DHT22;33219;47.410;9.730;2022-09-21T18:08:32;12.40;96.80
47482;DHT22;33219;47.410;9.730;2022-09-21T18:18:58;12.10;99.20
47482;DHT22;33219;47.410;9.730;2022-09-21T18:21:23;12.00;99.60
47482;DHT22;33219;47.410;9.730;2022-09-21T18:24:06;11.90;99.80
47482;DHT22;33219;47.410;9.730;2022-09-21T18:26:33;11.80;99.90
47482;DHT22;33219;47.410;9.730;2022-09-21T18:29:01;11.80;99.90
47482;DHT22;33219;47.410;9.730;2022-09-21T18:37:05;11.80;99.90
47482;DHT22;33219;47.410;9.730;2022-09-21T18:39:37;11.70;99.90
47482;DHT22;33219;47.410;9.730;2022-09-21T18:45:23;11.60;99.90
47482;DHT22;33219;47.410;9.730;2022-09-21T18:48:15;11.40;99.90
47482;DHT22;33219;47.410;9.730;2022-09-21T18:50:55;11.40;99.90
47482;DHT22;33219;47.410;9.730;2022-09-21T18:56:00;11.40;99.90
47482;DHT22;33219;47.410;9.730;2022-09-21T18:58:28;11.30;99.90
47482;DHT22;33219;47.410;9.730;2022-09-21T19:00:56;11.30;99.90